createdAt,value
2022-12-26T00:00:12.465Z,2.73
2022-12-26T00:02:39.556Z,2.75
2022-12-26T00:05:07.050Z,2.73
2022-12-26T00:07:34.019Z,2.71
2022-12-26T00:10:01.017Z,2.60
2022-12-26T00:12:27.927Z,2.51
2022-12-26T00:14:54.845Z,2.79
2022-12-26T00:17:21.826Z,2.85
2022-12-26T00:19:48.911Z,2.74
2022-12-26T00:22:16.077Z,2.73
2022-12-26T00:24:42.957Z,2.76
2022-12-26T00:27:09.880Z,2.93
2022-12-26T00:29:36.774Z,2.83
2022-12-26T00:32:05.218Z,2.89
2022-12-26T00:34:32.213Z,2.60
2022-12-26T00:36:59.151Z,2.81
2022-12-26T00:39:26.290Z,2.82
2022-12-26T00:41:53.244Z,2.81
2022-12-26T00:44:20.302Z,2.47
2022-12-26T00:46:47.195Z,2.85
2022-12-26T00:49:14.294Z,2.89
2022-12-26T00:51:41.228Z,2.68
2022-12-26T00:54:16.888Z,2.72
2022-12-26T00:56:43.871Z,2.54
2022-12-26T00:59:10.831Z,2.78
2022-12-26T01:01:37.983Z,2.42
2022-12-26T01:07:11.033Z,2.61
2022-12-26T01:09:38.729Z,2.49
2022-12-26T01:12:05.734Z,2.30
2022-12-26T01:14:32.644Z,2.42
2022-12-26T01:16:59.626Z,2.17
2022-12-26T01:19:26.879Z,2.29
2022-12-26T01:52:48.256Z,1.90
2022-12-26T02:56:36.634Z,2.14
2022-12-26T02:59:57.624Z,2.03
2022-12-26T03:07:13.342Z,2.13
2022-12-26T03:13:52.085Z,2.21
2022-12-26T03:16:50.792Z,2.05
2022-12-26T04:11:59.655Z,2.10
2022-12-26T04:15:17.190Z,2.02
2022-12-26T04:18:17.481Z,1.79
2022-12-26T07:00:01.822Z,2.57
2022-12-26T07:11:30.012Z,2.57
2022-12-26T07:13:57.596Z,2.82
2022-12-26T07:29:19.344Z,2.81
2022-12-26T07:31:46.344Z,2.84
2022-12-26T07:55:51.738Z,3.58
2022-12-26T07:58:18.776Z,3.68
2022-12-26T08:53:24.996Z,5.64
2022-12-26T08:55:52.756Z,5.67
2022-12-26T08:58:19.911Z,5.64
2022-12-26T09:09:23.242Z,6.11
2022-12-26T09:34:45.266Z,6.98
2022-12-26T09:37:12.355Z,7.11
2022-12-26T09:39:39.326Z,7.28
2022-12-26T09:42:15.876Z,7.33
2022-12-26T09:44:54.671Z,7.54
2022-12-26T09:47:56.350Z,7.58
2022-12-26T09:50:28.479Z,7.77
2022-12-26T09:52:59.544Z,7.72
2022-12-26T09:55:49.362Z,8.04
2022-12-26T09:58:40.146Z,8.15
2022-12-26T10:01:17.214Z,8.26
2022-12-26T10:03:53.907Z,8.32
2022-12-26T10:06:25.309Z,8.50
2022-12-26T10:09:07.442Z,8.63
2022-12-26T10:15:53.246Z,8.90
2022-12-26T10:18:29.169Z,8.98
2022-12-26T10:20:58.952Z,9.15
2022-12-26T10:23:32.484Z,9.25
2022-12-26T10:26:18.371Z,9.34
2022-12-26T10:28:55.125Z,9.21
2022-12-26T10:31:44.356Z,9.52
2022-12-26T10:34:21.765Z,9.42
2022-12-26T10:36:58.557Z,9.78
2022-12-26T10:39:28.081Z,9.93
2022-12-26T10:42:01.449Z,9.98
2022-12-26T10:44:28.638Z,9.95
2022-12-26T10:47:17.674Z,10.15
2022-12-26T10:49:47.351Z,10.10
2022-12-26T10:52:40.669Z,10.36
2022-12-26T10:55:28.178Z,10.22
2022-12-26T10:58:24.121Z,10.49
2022-12-26T11:00:51.092Z,10.50
2022-12-26T11:03:20.320Z,10.62
2022-12-26T11:06:10.636Z,10.71
2022-12-26T11:08:49.462Z,10.80
2022-12-26T11:11:46.309Z,10.39
2022-12-26T11:14:34.059Z,10.94
2022-12-26T11:17:08.131Z,10.87
2022-12-26T11:19:38.625Z,10.60
2022-12-26T11:22:26.721Z,11.07
2022-12-26T11:25:35.263Z,11.21
2022-12-26T11:28:27.095Z,11.14
2022-12-26T11:30:54.666Z,10.98
2022-12-26T11:33:24.181Z,11.15
2022-12-26T11:35:53.978Z,11.16
2022-12-26T11:38:44.493Z,10.94
2022-12-26T11:41:34.059Z,11.02
2022-12-26T11:44:26.584Z,11.06
2022-12-26T11:46:56.679Z,11.24
2022-12-26T11:49:34.780Z,11.27
2022-12-26T11:52:23.991Z,11.38
2022-12-26T11:54:51.576Z,11.40
2022-12-26T11:57:18.609Z,11.41
2022-12-26T11:59:47.013Z,11.50
2022-12-26T12:02:29.541Z,11.60
2022-12-26T12:05:06.645Z,11.44
2022-12-26T12:07:58.243Z,11.46
2022-12-26T12:10:34.074Z,11.47
2022-12-26T12:13:32.197Z,11.51
2022-12-26T12:16:15.192Z,11.52
2022-12-26T12:18:57.391Z,11.53
2022-12-26T12:21:43.144Z,11.58
2022-12-26T12:24:19.885Z,11.45
2022-12-26T12:27:04.893Z,11.48
2022-12-26T12:30:10.247Z,11.63
2022-12-26T12:32:55.195Z,11.63
2022-12-26T12:35:51.811Z,11.62
2022-12-26T12:38:40.348Z,11.62
2022-12-26T12:41:32.721Z,11.65
2022-12-26T12:44:19.765Z,11.71
2022-12-26T12:47:11.479Z,11.75
2022-12-26T12:50:12.909Z,11.72
2022-12-26T12:53:00.991Z,11.76
2022-12-26T12:55:43.056Z,11.78
2022-12-26T12:58:28.625Z,11.77
2022-12-26T13:01:11.198Z,11.62
2022-12-26T13:03:54.616Z,11.56
2022-12-26T13:06:43.968Z,11.80
2022-12-26T13:09:16.782Z,11.80
2022-12-26T13:11:57.429Z,11.59
2022-12-26T13:14:29.456Z,11.52
2022-12-26T13:17:04.963Z,11.67
2022-12-26T13:19:51.382Z,11.44
2022-12-26T13:22:55.364Z,11.35
2022-12-26T13:25:25.654Z,11.37
2022-12-26T13:28:09.779Z,11.11
2022-12-26T13:30:38.500Z,11.11
2022-12-26T13:33:08.824Z,10.64
2022-12-26T13:35:58.584Z,10.90
2022-12-26T13:38:52.270Z,10.36
2022-12-26T13:41:40.068Z,10.33
2022-12-26T13:44:26.061Z,10.07
2022-12-26T13:46:52.989Z,9.94
2022-12-26T13:49:27.917Z,9.72
2022-12-26T13:51:56.472Z,9.63
2022-12-26T13:54:25.648Z,9.16
2022-12-26T13:57:20.739Z,9.03
2022-12-26T14:00:09.916Z,9.04
2022-12-26T14:03:19.042Z,8.94
2022-12-26T14:06:10.067Z,8.68
2022-12-26T14:09:09.766Z,8.33
2022-12-26T14:12:01.759Z,8.48
2022-12-26T14:14:38.899Z,8.34
2022-12-26T14:17:16.140Z,8.28
2022-12-26T14:19:46.191Z,8.19
2022-12-26T14:22:30.813Z,8.08
2022-12-26T14:25:21.278Z,7.89
2022-12-26T14:28:12.147Z,7.78
2022-12-26T14:31:19.049Z,7.52
2022-12-26T14:33:50.299Z,7.54
2022-12-26T14:37:05.715Z,7.61
2022-12-26T14:39:47.475Z,7.38
2022-12-26T14:42:42.691Z,7.33
2022-12-26T14:45:30.020Z,7.12
2022-12-26T14:47:57.179Z,7.21
2022-12-26T14:50:33.331Z,7.35
2022-12-26T14:53:25.164Z,7.25
2022-12-26T14:55:52.381Z,7.10
2022-12-26T14:58:52.709Z,7.05
2022-12-26T15:01:22.667Z,6.99
2022-12-26T15:04:17.333Z,6.93
2022-12-26T15:07:15.443Z,6.73
2022-12-26T15:10:21.905Z,6.72
2022-12-26T15:12:58.980Z,6.72
2022-12-26T15:15:58.913Z,6.63
2022-12-26T15:19:01.516Z,6.65
2022-12-26T15:22:09.157Z,6.72
2022-12-26T15:25:18.645Z,6.57
2022-12-26T15:27:59.482Z,6.54
2022-12-26T15:30:40.166Z,6.27
2022-12-26T15:33:23.129Z,6.38
2022-12-26T15:35:54.714Z,6.31
2022-12-26T15:39:04.503Z,5.79
2022-12-26T15:41:48.155Z,6.07
2022-12-26T15:44:47.038Z,5.78
2022-12-26T15:47:55.819Z,6.09
2022-12-26T15:50:26.872Z,6.07
2022-12-26T15:53:10.107Z,6.06
2022-12-26T15:55:55.484Z,6.03
2022-12-26T15:58:52.956Z,6.03
2022-12-26T16:01:40.133Z,5.97
2022-12-26T16:04:17.789Z,5.93
2022-12-26T16:07:17.009Z,5.95
2022-12-26T16:09:55.340Z,5.57
2022-12-26T16:12:25.708Z,5.96
2022-12-26T16:15:09.462Z,5.92
2022-12-26T16:17:38.510Z,5.90
2022-12-26T16:20:47.987Z,5.76
2022-12-26T16:23:20.946Z,5.77
2022-12-26T16:25:59.675Z,5.62
2022-12-26T16:28:39.574Z,5.34
2022-12-26T16:31:08.021Z,5.15
2022-12-26T16:33:43.626Z,5.43
2022-12-26T16:36:20.699Z,5.43
2022-12-26T16:38:48.669Z,5.61
2022-12-26T16:41:39.864Z,5.55
2022-12-26T16:44:30.768Z,5.52
2022-12-26T16:47:13.007Z,5.26
2022-12-26T16:49:45.298Z,5.44
2022-12-26T16:52:39.293Z,5.05
2022-12-26T16:55:26.620Z,5.10
2022-12-26T16:57:57.401Z,5.36
2022-12-26T17:00:25.135Z,5.17
2022-12-26T17:02:57.222Z,5.32
2022-12-26T17:05:27.396Z,5.35
2022-12-26T17:07:59.031Z,5.25
2022-12-26T17:10:29.449Z,5.11
2022-12-26T17:13:10.379Z,5.14
2022-12-26T17:15:48.227Z,4.82
2022-12-26T17:18:46.347Z,5.05
2022-12-26T17:21:21.947Z,4.99
2022-12-26T17:24:07.762Z,4.97
2022-12-26T17:26:38.028Z,4.87
2022-12-26T17:29:05.719Z,4.67
2022-12-26T17:31:40.155Z,5.04
2022-12-26T17:34:14.516Z,4.65
2022-12-26T17:39:29.681Z,4.96
2022-12-26T17:42:01.717Z,4.96
2022-12-26T17:44:49.251Z,4.98
2022-12-26T17:47:27.236Z,4.96
2022-12-26T17:49:55.475Z,4.90
2022-12-26T17:52:34.943Z,4.65
2022-12-26T17:55:04.226Z,4.84
2022-12-26T17:57:31.199Z,4.89
2022-12-26T17:59:58.572Z,4.72
2022-12-26T18:02:25.701Z,4.74
2022-12-26T18:04:53.942Z,4.72
2022-12-26T18:07:30.853Z,4.53
2022-12-26T18:10:00.212Z,4.77
2022-12-26T18:12:27.396Z,4.40
2022-12-26T18:15:01.095Z,4.59
2022-12-26T18:17:31.469Z,4.68
2022-12-26T18:19:59.148Z,4.58
2022-12-26T18:22:26.241Z,4.58
2022-12-26T18:24:53.250Z,4.41
2022-12-26T18:27:29.303Z,4.73
2022-12-26T18:29:56.256Z,4.54
2022-12-26T18:32:30.073Z,4.72
2022-12-26T18:34:57.527Z,4.70
2022-12-26T18:37:27.258Z,4.67
2022-12-26T18:39:54.620Z,4.61
2022-12-26T18:42:21.645Z,4.31
2022-12-26T18:44:48.809Z,4.55
2022-12-26T18:47:18.636Z,4.55
2022-12-26T18:49:46.365Z,4.22
2022-12-26T18:52:17.810Z,4.30
2022-12-26T18:54:45.451Z,4.45
2022-12-26T18:57:19.141Z,4.25
2022-12-26T18:59:48.351Z,3.89
2022-12-26T19:02:18.429Z,4.51
2022-12-26T19:04:48.664Z,4.46
2022-12-26T19:07:17.771Z,4.49
2022-12-26T19:09:46.546Z,4.30
2022-12-26T19:12:13.691Z,4.45
2022-12-26T19:14:41.635Z,4.49
2022-12-26T19:17:08.512Z,4.09
2022-12-26T19:19:35.626Z,4.17
2022-12-26T19:22:02.739Z,4.23
2022-12-26T19:24:29.727Z,4.53
2022-12-26T19:26:56.774Z,4.44
2022-12-26T19:29:23.811Z,4.28
2022-12-26T19:31:50.866Z,4.48
2022-12-26T19:34:17.861Z,4.18
2022-12-26T19:36:44.834Z,4.24
2022-12-26T19:39:11.766Z,4.49
2022-12-26T19:41:38.685Z,4.40
2022-12-26T19:47:46.976Z,4.51
2022-12-26T19:50:14.193Z,4.53
2022-12-26T19:52:41.481Z,4.63
2022-12-26T19:55:11.566Z,4.64
2022-12-26T19:57:38.718Z,4.44
2022-12-26T20:00:10.784Z,4.52
2022-12-26T20:02:41.391Z,4.46
2022-12-26T20:05:09.768Z,4.62
2022-12-26T20:07:36.863Z,4.54
2022-12-26T20:10:04.767Z,4.59
2022-12-26T20:12:31.754Z,4.45
2022-12-26T20:14:58.748Z,4.45
2022-12-26T20:17:25.772Z,4.39
2022-12-26T20:19:56.987Z,4.50
2022-12-26T20:22:23.993Z,4.25
2022-12-26T20:24:50.947Z,4.17
2022-12-26T20:27:18.208Z,4.48
2022-12-26T20:29:45.338Z,4.45
2022-12-26T20:32:12.488Z,4.59
2022-12-26T20:34:39.627Z,4.58
2022-12-26T20:37:06.711Z,4.27
2022-12-26T20:39:33.756Z,4.45
2022-12-26T20:42:00.839Z,4.52
2022-12-26T20:44:27.898Z,4.55
2022-12-26T20:46:54.951Z,4.22
2022-12-26T20:49:21.983Z,4.17
2022-12-26T20:51:49.097Z,4.52
2022-12-26T20:54:17.668Z,4.62
2022-12-26T20:56:45.389Z,4.58
2022-12-26T20:59:12.443Z,4.65
2022-12-26T21:01:40.558Z,4.47
2022-12-26T21:04:10.678Z,4.54
2022-12-26T21:06:38.357Z,4.53
2022-12-26T21:09:06.848Z,4.37
2022-12-26T21:11:38.171Z,4.38
2022-12-26T21:14:08.159Z,4.24
2022-12-26T21:16:41.610Z,4.57
2022-12-26T21:19:15.069Z,4.51
2022-12-26T21:21:44.411Z,4.36
2022-12-26T21:24:18.218Z,4.47
2022-12-26T21:26:46.553Z,3.99
2022-12-26T21:29:23.265Z,4.49
2022-12-26T21:31:50.798Z,4.25
2022-12-26T21:34:19.684Z,4.45
2022-12-26T21:37:05.649Z,4.41
2022-12-26T21:39:34.282Z,4.50
2022-12-26T21:42:02.102Z,4.16
2022-12-26T21:44:30.471Z,4.18
2022-12-26T21:46:57.395Z,4.34
2022-12-26T21:49:24.586Z,4.31
2022-12-26T21:51:51.585Z,4.32
2022-12-26T21:54:37.382Z,4.05
2022-12-26T21:57:05.768Z,4.17
2022-12-26T21:59:51.241Z,4.31
2022-12-26T22:02:36.853Z,4.01
2022-12-26T22:05:04.235Z,4.26
2022-12-26T22:07:31.196Z,3.99
2022-12-26T22:09:58.145Z,3.88
2022-12-26T22:12:43.445Z,4.15
2022-12-26T22:15:31.110Z,4.28
2022-12-26T22:17:58.179Z,3.99
2022-12-26T22:20:25.457Z,4.13
2022-12-26T22:22:53.015Z,4.32
2022-12-26T22:25:20.168Z,4.10
2022-12-26T22:27:47.439Z,3.51
2022-12-26T22:30:14.506Z,3.94
2022-12-26T22:32:41.485Z,4.27
2022-12-26T22:35:13.295Z,4.37
2022-12-26T22:37:45.280Z,4.19
2022-12-26T22:40:12.470Z,4.25
2022-12-26T22:42:39.449Z,4.25
2022-12-26T22:45:06.993Z,4.30
2022-12-26T22:47:33.918Z,4.24
2022-12-26T22:50:00.844Z,4.19
2022-12-26T22:52:29.024Z,4.13
2022-12-26T22:54:55.967Z,4.31
2022-12-26T22:57:23.808Z,3.95
2022-12-26T23:00:08.263Z,4.09
2022-12-26T23:02:35.928Z,4.25
2022-12-26T23:05:04.095Z,4.25
2022-12-26T23:07:31.408Z,4.18
2022-12-26T23:09:58.992Z,3.81
2022-12-26T23:12:44.486Z,3.99
2022-12-26T23:15:18.433Z,4.18
2022-12-26T23:18:13.778Z,4.23
2022-12-26T23:20:59.495Z,4.06
2022-12-26T23:23:26.913Z,4.14
2022-12-26T23:25:53.987Z,4.29
2022-12-26T23:28:39.742Z,4.04
2022-12-26T23:31:06.814Z,4.20
2022-12-26T23:33:33.881Z,3.98
2022-12-26T23:36:00.900Z,4.23
2022-12-26T23:38:27.891Z,3.96
2022-12-26T23:40:54.891Z,3.93
2022-12-26T23:43:21.796Z,4.02
2022-12-26T23:45:48.820Z,4.13
2022-12-26T23:48:15.912Z,4.11
2022-12-26T23:50:42.935Z,4.10
2022-12-26T23:53:10.066Z,3.94
2022-12-26T23:55:41.894Z,4.00
2022-12-26T23:58:09.035Z,4.09
